Herne Bay, United Kingdom
Current Conditions -  °F | °C
As of 3:20 PM on Wednesday 26 Nov 2014 (Local Time) from EGMC Reporting Station
Haze Haze  
Wind Chill: 50°   Ceiling: 500
Heat Index: 50°   Visibility: 3mi
Dew Point: 46°   Wind: 3mph
Humidity: 87%   Direction: 70°ENE
Pressure: 29.8"   Gusts: NA
Location:  51.37°N, 1.13°E
Report Text: EGMC 261520Z 07003KT 5000 BR BKN005 OVC007 10/08 Q1009
Loading
Personal Weather Stations






























Interactive Weather Map New forecast layout! Learn more

10-Day Weather Forecast

Advertisements
Track Severe Weather on mobile